createdAt,value
2023-05-08T00:00:28.578Z,6.15
2023-05-08T00:01:32.061Z,6.15
2023-05-08T00:02:34.103Z,5.60
2023-05-08T00:03:37.237Z,5.93
2023-05-08T00:04:39.320Z,6.07
2023-05-08T00:05:43.986Z,5.75
2023-05-08T00:06:45.967Z,6.30
2023-05-08T00:07:51.088Z,5.70
2023-05-08T00:08:53.781Z,6.05
2023-05-08T00:09:56.683Z,6.40
2023-05-08T00:10:58.639Z,5.57
2023-05-08T00:12:01.533Z,6.72
2023-05-08T00:13:03.510Z,6.03
2023-05-08T00:14:07.323Z,6.85
2023-05-08T00:15:10.680Z,6.38
2023-05-08T00:16:13.939Z,6.28
2023-05-08T00:17:15.980Z,6.90
2023-05-08T00:18:18.890Z,6.88
2023-05-08T00:19:21.113Z,6.00
2023-05-08T00:20:24.282Z,6.57
2023-05-08T00:21:27.641Z,6.68
2023-05-08T00:22:30.587Z,5.75
2023-05-08T00:23:32.876Z,6.85
2023-05-08T00:24:36.016Z,6.75
2023-05-08T00:25:37.932Z,6.20
2023-05-08T00:26:42.025Z,6.18
2023-05-08T00:27:43.988Z,6.07
2023-05-08T00:28:46.932Z,6.20
2023-05-08T00:29:49.010Z,6.55
2023-05-08T00:30:52.314Z,6.88
2023-05-08T00:31:54.278Z,6.63
2023-05-08T00:32:57.686Z,6.43
2023-05-08T00:33:59.718Z,6.80
2023-05-08T00:35:02.924Z,6.30
2023-05-08T00:36:06.000Z,6.75
2023-05-08T00:37:10.292Z,6.15
2023-05-08T00:38:12.279Z,6.15
2023-05-08T00:39:15.248Z,6.35
2023-05-08T00:40:17.248Z,7.47
2023-05-08T00:41:20.189Z,6.05
2023-05-08T00:42:22.120Z,6.47
2023-05-08T00:43:28.236Z,6.22
2023-05-08T00:44:30.326Z,7.00
2023-05-08T00:45:36.035Z,6.30
2023-05-08T00:46:38.049Z,7.63
2023-05-08T00:47:41.404Z,6.50
2023-05-08T00:48:44.410Z,6.82
2023-05-08T00:49:47.361Z,6.45
2023-05-08T00:50:50.761Z,6.13
2023-05-08T00:51:56.786Z,6.97
2023-05-08T00:53:02.777Z,6.53
2023-05-08T00:54:05.795Z,6.65
2023-05-08T00:55:08.513Z,6.72
2023-05-08T00:56:13.588Z,6.25
2023-05-08T00:57:16.817Z,6.95
2023-05-08T00:58:20.501Z,5.88
2023-05-08T00:59:24.074Z,6.55
2023-05-08T01:00:27.458Z,6.22
2023-05-08T01:01:30.107Z,6.75
2023-05-08T01:02:33.466Z,6.25
2023-05-08T01:03:36.570Z,6.55
2023-05-08T01:04:40.247Z,7.05
2023-05-08T01:05:43.365Z,7.05
2023-05-08T01:06:46.377Z,6.65
2023-05-08T01:07:48.557Z,6.18
2023-05-08T01:08:52.792Z,6.78
2023-05-08T01:09:54.717Z,6.70
2023-05-08T01:11:06.579Z,7.40
2023-05-08T01:12:18.709Z,6.97
2023-05-08T01:13:31.858Z,7.03
2023-05-08T01:14:51.073Z,6.68
2023-05-08T01:16:00.550Z,6.78
2023-05-08T01:17:11.330Z,6.72
2023-05-08T01:18:17.431Z,6.70
2023-05-08T01:19:41.851Z,7.00
2023-05-08T01:20:51.677Z,6.50
2023-05-08T01:22:01.394Z,6.43
2023-05-08T01:23:32.216Z,6.68
2023-05-08T01:24:55.512Z,6.80
2023-05-08T01:26:32.914Z,6.97
2023-05-08T01:28:14.558Z,6.68
2023-05-08T01:29:55.770Z,7.05
2023-05-08T01:31:18.475Z,6.70
2023-05-08T01:32:26.382Z,7.35
2023-05-08T01:33:35.469Z,7.13
2023-05-08T01:34:46.317Z,7.40
2023-05-08T01:35:52.057Z,6.40
2023-05-08T01:37:00.136Z,6.47
2023-05-08T01:38:09.752Z,7.35
2023-05-08T01:39:19.890Z,6.75
2023-05-08T01:40:28.454Z,7.22
2023-05-08T01:41:35.809Z,7.45
2023-05-08T01:42:46.518Z,6.95
2023-05-08T01:43:54.697Z,6.45
2023-05-08T01:45:00.484Z,7.60
2023-05-08T01:46:10.016Z,7.13
2023-05-08T01:47:13.750Z,6.72
2023-05-08T01:48:26.588Z,7.53
2023-05-08T01:49:34.353Z,7.30
2023-05-08T01:50:43.567Z,6.13
2023-05-08T01:51:48.711Z,7.85
2023-05-08T01:52:58.413Z,7.00
2023-05-08T01:54:04.845Z,6.85
2023-05-08T01:55:12.427Z,6.85
2023-05-08T01:56:18.339Z,7.10
2023-05-08T01:57:23.567Z,6.85
2023-05-08T01:58:27.858Z,7.13
2023-05-08T01:59:32.702Z,6.72
2023-05-08T02:00:34.745Z,7.10
2023-05-08T02:01:38.068Z,7.47
2023-05-08T02:02:41.005Z,7.63
2023-05-08T02:03:47.168Z,7.90
2023-05-08T02:04:50.804Z,6.03
2023-05-08T02:05:55.979Z,6.47
2023-05-08T02:06:59.787Z,7.18
2023-05-08T02:08:03.539Z,6.53
2023-05-08T02:09:08.215Z,7.55
2023-05-08T02:10:12.597Z,6.88
2023-05-08T02:11:16.419Z,6.90
2023-05-08T02:12:19.825Z,6.80
2023-05-08T02:13:23.526Z,7.22
2023-05-08T02:14:29.164Z,6.55
2023-05-08T02:15:35.865Z,6.28
2023-05-08T02:16:39.990Z,7.28
2023-05-08T02:17:43.707Z,6.95
2023-05-08T02:18:53.015Z,7.47
2023-05-08T02:19:56.488Z,6.93
2023-05-08T02:21:01.781Z,6.70
2023-05-08T02:22:05.861Z,6.90
2023-05-08T02:23:09.586Z,7.38
2023-05-08T02:24:13.554Z,7.57
2023-05-08T02:25:17.117Z,7.35
2023-05-08T02:26:21.729Z,7.72
2023-05-08T02:27:25.962Z,6.68
2023-05-08T02:28:30.489Z,7.70
2023-05-08T02:29:33.426Z,7.82
2023-05-08T02:30:37.193Z,7.85
2023-05-08T02:31:39.937Z,7.25
2023-05-08T02:32:44.669Z,6.90
2023-05-08T02:33:49.364Z,7.85
2023-05-08T02:35:02.336Z,6.80
2023-05-08T02:36:05.928Z,7.30
2023-05-08T02:37:09.544Z,7.88
2023-05-08T02:38:14.247Z,7.43
2023-05-08T02:39:20.646Z,8.05
2023-05-08T02:40:24.881Z,6.88
2023-05-08T02:41:31.891Z,7.25
2023-05-08T02:42:33.951Z,6.63
2023-05-08T02:43:37.204Z,7.00
2023-05-08T02:44:39.201Z,6.75
2023-05-08T02:45:48.026Z,7.43
2023-05-08T02:46:56.444Z,7.13
2023-05-08T02:48:08.711Z,7.07
2023-05-08T02:49:23.511Z,7.05
2023-05-08T02:50:35.863Z,7.40
2023-05-08T02:51:48.065Z,7.35
2023-05-08T02:52:53.471Z,7.93
2023-05-08T02:54:01.930Z,7.10
2023-05-08T02:55:15.164Z,6.47
2023-05-08T02:56:31.756Z,6.82
2023-05-08T02:57:42.009Z,8.00
2023-05-08T02:58:50.852Z,7.20
2023-05-08T03:00:00.849Z,7.75
2023-05-08T03:01:07.239Z,7.13
2023-05-08T03:02:15.299Z,7.85
2023-05-08T03:03:23.068Z,7.35
2023-05-08T03:04:32.250Z,6.90
2023-05-08T03:05:37.111Z,7.75
2023-05-08T03:06:43.821Z,8.27
2023-05-08T03:07:50.224Z,7.60
2023-05-08T03:08:57.314Z,7.80
2023-05-08T03:10:03.064Z,7.47
2023-05-08T03:11:11.230Z,7.53
2023-05-08T03:12:17.082Z,7.93
2023-05-08T03:13:21.940Z,7.90
2023-05-08T03:14:27.021Z,7.15
2023-05-08T03:15:36.187Z,7.80
2023-05-08T03:16:41.773Z,7.10
2023-05-08T03:17:47.229Z,6.65
2023-05-08T03:18:52.858Z,6.93
2023-05-08T03:20:00.630Z,7.13
2023-05-08T03:21:05.508Z,6.95
2023-05-08T03:22:10.222Z,7.97
2023-05-08T03:23:14.108Z,7.45
2023-05-08T03:24:20.149Z,7.93
2023-05-08T03:25:23.176Z,6.45
2023-05-08T03:26:26.593Z,7.22
2023-05-08T03:27:29.625Z,7.22
2023-05-08T03:28:33.643Z,7.22
2023-05-08T03:29:38.567Z,7.45
2023-05-08T03:30:42.335Z,7.15
2023-05-08T03:31:45.165Z,8.23
2023-05-08T03:32:50.766Z,7.63
2023-05-08T03:33:54.571Z,7.10
2023-05-08T03:35:00.503Z,7.47
2023-05-08T03:36:02.744Z,7.60
2023-05-08T03:37:06.493Z,7.30
2023-05-08T03:38:08.958Z,6.22
2023-05-08T03:39:12.251Z,7.10
2023-05-08T03:40:16.363Z,8.00
2023-05-08T03:41:19.471Z,7.65
2023-05-08T03:42:22.444Z,7.60
2023-05-08T03:43:26.964Z,7.45
2023-05-08T03:44:30.574Z,7.40
2023-05-08T03:45:36.742Z,7.28
2023-05-08T03:46:40.034Z,8.30
2023-05-08T03:47:44.586Z,7.63
2023-05-08T03:48:49.431Z,6.95
2023-05-08T03:49:52.655Z,6.80
2023-05-08T03:50:57.356Z,6.72
2023-05-08T03:52:00.664Z,7.60
2023-05-08T03:53:03.322Z,7.80
2023-05-08T03:54:06.339Z,7.97
2023-05-08T03:55:10.987Z,6.57
2023-05-08T03:56:13.929Z,6.80
2023-05-08T03:57:15.916Z,7.78
2023-05-08T03:58:25.344Z,6.82
2023-05-08T03:59:42.540Z,7.38
2023-05-08T04:00:59.825Z,7.40
2023-05-08T04:02:14.939Z,7.85
2023-05-08T04:03:26.274Z,7.43
2023-05-08T04:04:35.993Z,7.30
2023-05-08T04:05:44.564Z,6.82
2023-05-08T04:06:55.106Z,7.53
2023-05-08T04:08:04.819Z,8.02
2023-05-08T04:09:13.802Z,7.03
2023-05-08T04:10:25.804Z,6.97
2023-05-08T04:11:35.609Z,6.90
2023-05-08T04:12:46.296Z,6.70
2023-05-08T04:13:54.157Z,7.53
2023-05-08T04:15:02.446Z,7.22
2023-05-08T04:16:09.828Z,7.75
2023-05-08T04:17:18.311Z,7.43
2023-05-08T04:18:25.700Z,6.78
2023-05-08T04:19:31.151Z,6.82
2023-05-08T04:20:34.049Z,7.18
2023-05-08T04:21:37.882Z,7.40
2023-05-08T04:22:42.964Z,7.10
2023-05-08T04:23:47.858Z,7.80
2023-05-08T04:24:51.596Z,7.72
2023-05-08T04:25:56.836Z,7.20
2023-05-08T04:27:00.395Z,7.20
2023-05-08T04:28:03.507Z,7.00
2023-05-08T04:29:07.099Z,7.28
2023-05-08T04:30:11.257Z,6.60
2023-05-08T04:31:15.584Z,7.88
2023-05-08T04:32:18.799Z,7.00
2023-05-08T04:33:20.909Z,7.28
2023-05-08T04:34:24.497Z,7.35
2023-05-08T04:35:26.581Z,8.13
2023-05-08T04:36:33.857Z,7.85
2023-05-08T04:37:35.826Z,7.45
2023-05-08T04:38:40.562Z,7.55
2023-05-08T04:39:43.728Z,6.70
2023-05-08T04:40:46.829Z,6.70
2023-05-08T04:41:51.138Z,7.07
2023-05-08T04:42:54.309Z,6.95
2023-05-08T04:43:56.723Z,7.60
2023-05-08T04:44:59.671Z,7.25
2023-05-08T04:46:01.789Z,7.25
2023-05-08T04:47:04.879Z,7.47
2023-05-08T04:48:07.065Z,7.57
2023-05-08T04:49:10.214Z,8.45
2023-05-08T04:50:12.234Z,7.25
2023-05-08T04:51:15.191Z,7.00
2023-05-08T04:52:17.141Z,6.78
2023-05-08T04:53:20.172Z,7.45
2023-05-08T04:54:23.570Z,7.20
2023-05-08T04:55:26.461Z,7.88
2023-05-08T04:56:28.469Z,7.57
2023-05-08T04:57:31.405Z,7.10
2023-05-08T04:58:33.571Z,7.75
2023-05-08T04:59:36.537Z,7.60
2023-05-08T05:00:38.538Z,7.05
2023-05-08T05:01:41.666Z,7.68
2023-05-08T05:02:43.614Z,7.25
2023-05-08T05:03:46.605Z,7.75
2023-05-08T05:04:48.620Z,6.95
2023-05-08T05:05:58.669Z,6.80
2023-05-08T05:07:00.661Z,7.50
2023-05-08T05:08:04.180Z,7.70
2023-05-08T05:09:06.377Z,7.00
2023-05-08T05:10:11.590Z,7.45
2023-05-08T05:11:16.361Z,7.55
2023-05-08T05:12:19.374Z,7.78
2023-05-08T05:13:21.367Z,7.40
2023-05-08T05:14:24.453Z,7.75
2023-05-08T05:15:26.467Z,8.55
2023-05-08T05:16:29.587Z,8.10
2023-05-08T05:17:31.770Z,8.60
2023-05-08T05:18:34.754Z,8.30
2023-05-08T05:19:36.673Z,7.93
2023-05-08T05:20:39.738Z,8.73
2023-05-08T05:21:41.641Z,8.02
2023-05-08T05:22:44.573Z,7.50
2023-05-08T05:23:46.531Z,8.10
2023-05-08T05:24:49.500Z,7.32
2023-05-08T05:25:53.400Z,8.00
2023-05-08T05:26:56.338Z,8.32
2023-05-08T05:27:58.307Z,7.63
2023-05-08T05:29:01.418Z,9.15
2023-05-08T05:30:03.813Z,8.00
2023-05-08T05:31:06.810Z,8.10
2023-05-08T05:32:10.193Z,8.10
2023-05-08T05:33:13.099Z,9.07
2023-05-08T05:34:15.072Z,7.57
2023-05-08T05:35:18.076Z,7.68
2023-05-08T05:36:20.013Z,9.48
2023-05-08T05:37:23.160Z,7.20
2023-05-08T05:38:27.193Z,8.93
2023-05-08T05:39:30.109Z,8.48
2023-05-08T05:40:32.081Z,8.32
2023-05-08T05:41:39.388Z,7.55
2023-05-08T05:42:41.543Z,7.63
2023-05-08T05:43:44.548Z,8.07
2023-05-08T05:44:46.468Z,8.40
2023-05-08T05:45:49.583Z,8.65
2023-05-08T05:46:51.563Z,7.60
2023-05-08T05:47:54.521Z,8.15
2023-05-08T05:48:56.510Z,7.70
2023-05-08T05:49:59.485Z,7.50
2023-05-08T05:51:01.963Z,7.80
2023-05-08T05:52:05.568Z,8.30
2023-05-08T05:53:07.750Z,7.60
2023-05-08T05:54:10.689Z,8.23
2023-05-08T05:55:13.171Z,8.32
2023-05-08T05:56:17.924Z,7.85
2023-05-08T05:57:21.279Z,8.50
2023-05-08T05:58:24.250Z,7.65
2023-05-08T05:59:26.356Z,8.50
2023-05-08T06:00:30.575Z,7.78
2023-05-08T06:01:32.601Z,8.60
2023-05-08T06:02:36.863Z,8.68
2023-05-08T06:03:39.035Z,7.75
2023-05-08T06:04:42.076Z,7.55
2023-05-08T06:05:46.477Z,7.78
2023-05-08T06:06:49.607Z,7.85
2023-05-08T06:07:51.595Z,8.13
2023-05-08T06:08:54.588Z,7.38
2023-05-08T06:09:56.532Z,7.57
2023-05-08T06:10:59.701Z,8.82
2023-05-08T06:12:01.961Z,8.13
2023-05-08T06:13:06.498Z,7.72
2023-05-08T06:14:08.644Z,8.13
2023-05-08T06:15:13.273Z,7.70
2023-05-08T06:16:15.623Z,8.45
2023-05-08T06:17:19.012Z,8.98
2023-05-08T06:18:21.034Z,7.85
2023-05-08T06:19:24.449Z,8.82
2023-05-08T06:20:26.783Z,7.60
2023-05-08T06:21:29.797Z,7.60
2023-05-08T06:22:31.790Z,8.20
2023-05-08T06:23:34.757Z,8.00
2023-05-08T06:24:36.676Z,8.98
2023-05-08T06:25:39.729Z,7.10
2023-05-08T06:26:41.661Z,7.25
2023-05-08T06:27:44.641Z,7.85
2023-05-08T06:28:48.033Z,9.40
2023-05-08T06:29:53.175Z,9.30
2023-05-08T06:30:55.446Z,7.30
2023-05-08T06:31:58.424Z,8.15
2023-05-08T06:33:00.511Z,8.38
2023-05-08T06:34:04.004Z,8.15
2023-05-08T06:35:06.926Z,8.65
2023-05-08T06:36:10.447Z,8.32
2023-05-08T06:37:12.374Z,7.57
2023-05-08T06:38:15.850Z,8.63
2023-05-08T06:39:17.885Z,7.60
2023-05-08T06:40:21.088Z,7.72
2023-05-08T06:41:24.026Z,8.20
2023-05-08T06:42:26.006Z,8.13
2023-05-08T06:43:28.902Z,7.22
2023-05-08T06:44:32.292Z,8.88
2023-05-08T06:45:35.244Z,8.45
2023-05-08T06:46:38.189Z,7.90
2023-05-08T06:47:40.275Z,8.85
2023-05-08T06:48:43.241Z,8.07
2023-05-08T06:49:46.203Z,8.13
2023-05-08T06:50:49.167Z,8.00
2023-05-08T06:51:51.090Z,8.10
2023-05-08T06:52:54.003Z,8.25
2023-05-08T06:53:56.024Z,8.35
2023-05-08T06:54:58.997Z,7.68
2023-05-08T06:56:02.004Z,7.07
2023-05-08T06:57:04.154Z,7.88
2023-05-08T06:58:07.100Z,8.85
2023-05-08T06:59:09.412Z,7.03
2023-05-08T07:00:15.051Z,7.63
2023-05-08T07:01:17.147Z,8.20
2023-05-08T07:02:20.158Z,7.40
2023-05-08T07:03:23.108Z,8.95
2023-05-08T07:04:25.101Z,7.70
2023-05-08T07:05:28.110Z,7.20
2023-05-08T07:06:30.904Z,7.80
2023-05-08T07:07:33.890Z,7.30
2023-05-08T07:08:37.462Z,8.23
2023-05-08T07:09:39.451Z,7.63
2023-05-08T07:10:42.343Z,8.32
2023-05-08T07:11:44.468Z,7.50
2023-05-08T07:12:47.467Z,7.18
2023-05-08T07:13:49.777Z,7.55
2023-05-08T07:14:52.718Z,7.70
2023-05-08T07:15:56.118Z,7.70
2023-05-08T07:17:01.060Z,7.75
2023-05-08T07:18:04.114Z,7.82
2023-05-08T07:19:06.195Z,7.63
2023-05-08T07:20:10.120Z,7.55
2023-05-08T07:21:13.170Z,7.88
2023-05-08T07:22:15.251Z,7.57
2023-05-08T07:23:18.184Z,7.63
2023-05-08T07:24:20.172Z,7.15
2023-05-08T07:25:24.243Z,8.73
2023-05-08T07:26:27.537Z,7.85
2023-05-08T07:27:29.517Z,7.28
2023-05-08T07:28:32.434Z,8.43
2023-05-08T07:29:35.901Z,6.60
2023-05-08T07:30:38.916Z,8.07
2023-05-08T07:31:43.282Z,7.38
2023-05-08T07:32:45.452Z,7.90
2023-05-08T07:33:48.461Z,7.47
2023-05-08T07:34:51.785Z,8.05
2023-05-08T07:35:53.853Z,7.63
2023-05-08T07:36:57.019Z,8.88
2023-05-08T07:37:59.043Z,7.47
2023-05-08T07:39:02.014Z,6.95
2023-05-08T07:40:04.771Z,7.50
2023-05-08T07:41:08.268Z,7.90
2023-05-08T07:42:10.283Z,7.72
2023-05-08T07:43:15.027Z,7.43
2023-05-08T07:44:18.017Z,6.28
2023-05-08T07:45:25.796Z,7.63
2023-05-08T07:46:28.790Z,7.80
2023-05-08T07:47:33.184Z,6.63
2023-05-08T07:48:35.178Z,7.15
2023-05-08T07:49:38.150Z,7.43
2023-05-08T07:50:41.104Z,7.95
2023-05-08T07:51:44.030Z,6.93
2023-05-08T07:52:47.935Z,8.70
2023-05-08T07:53:52.467Z,6.68
2023-05-08T07:54:54.499Z,6.88
2023-05-08T07:55:57.450Z,8.52
2023-05-08T07:56:59.422Z,8.05
2023-05-08T07:58:03.611Z,7.50
2023-05-08T07:59:05.510Z,7.93
2023-05-08T08:00:10.422Z,7.25
2023-05-08T08:01:12.363Z,7.05
2023-05-08T08:02:15.405Z,7.65
2023-05-08T08:03:19.753Z,7.03
2023-05-08T08:04:21.846Z,7.30
2023-05-08T08:05:24.966Z,7.97
2023-05-08T08:06:26.876Z,7.53
2023-05-08T08:07:29.797Z,7.78
2023-05-08T08:08:31.815Z,7.75
2023-05-08T08:09:34.735Z,8.50
2023-05-08T08:10:36.787Z,8.23
2023-05-08T08:11:39.722Z,7.22
2023-05-08T08:12:41.697Z,7.18
2023-05-08T08:13:44.683Z,7.65
2023-05-08T08:14:46.788Z,9.30
2023-05-08T08:15:49.745Z,9.30
2023-05-08T08:16:52.842Z,7.95
2023-05-08T08:17:55.271Z,7.93
2023-05-08T08:18:59.564Z,7.80
2023-05-08T08:20:02.574Z,8.23
2023-05-08T08:21:08.876Z,7.60
2023-05-08T08:22:10.839Z,7.60
2023-05-08T08:23:13.832Z,7.45
2023-05-08T08:24:15.818Z,7.28
2023-05-08T08:25:18.898Z,7.63
2023-05-08T08:26:20.951Z,7.65
2023-05-08T08:27:24.362Z,7.38
2023-05-08T08:28:26.330Z,7.15
2023-05-08T08:29:29.304Z,6.75
2023-05-08T08:30:32.254Z,7.00
2023-05-08T08:31:35.510Z,6.90
2023-05-08T08:32:37.759Z,7.60
2023-05-08T08:33:40.780Z,8.27
2023-05-08T08:34:44.214Z,7.30
2023-05-08T08:35:47.160Z,7.20
2023-05-08T08:36:49.324Z,7.05
2023-05-08T08:37:52.294Z,6.53
2023-05-08T08:38:54.355Z,8.45
2023-05-08T08:39:57.293Z,7.90
2023-05-08T08:41:00.324Z,8.82
2023-05-08T08:42:03.583Z,7.63
2023-05-08T08:43:05.801Z,7.88
2023-05-08T08:44:09.026Z,6.55
2023-05-08T08:45:11.529Z,9.05
2023-05-08T08:46:15.741Z,7.97
2023-05-08T08:47:22.702Z,6.88
2023-05-08T08:48:29.074Z,8.70
2023-05-08T08:49:34.056Z,7.00
2023-05-08T08:50:43.158Z,8.07
2023-05-08T08:51:52.912Z,8.80
2023-05-08T08:53:01.990Z,8.50
2023-05-08T08:54:07.852Z,7.90
2023-05-08T08:55:13.615Z,8.63
2023-05-08T08:56:17.593Z,7.90
2023-05-08T08:57:21.575Z,7.93
2023-05-08T08:58:33.129Z,7.85
2023-05-08T08:59:38.394Z,9.38
2023-05-08T09:02:12.669Z,7.38
2023-05-08T09:03:14.935Z,7.10
2023-05-08T09:04:18.145Z,7.15
2023-05-08T09:05:22.229Z,7.78
2023-05-08T09:06:27.674Z,7.13
2023-05-08T09:07:31.776Z,7.93
2023-05-08T09:08:34.676Z,6.85
2023-05-08T09:09:40.874Z,7.60
2023-05-08T09:10:42.927Z,8.25
2023-05-08T09:11:47.756Z,7.88
2023-05-08T09:12:49.778Z,7.93
2023-05-08T09:13:52.957Z,7.80
2023-05-08T09:14:54.957Z,7.25
2023-05-08T09:15:59.299Z,7.82
2023-05-08T09:17:01.657Z,7.97
2023-05-08T09:18:04.905Z,7.15
2023-05-08T09:19:07.403Z,7.65
2023-05-08T09:20:12.400Z,7.85
2023-05-08T09:21:16.093Z,8.95
2023-05-08T09:22:20.373Z,8.50
2023-05-08T09:23:23.583Z,7.75
2023-05-08T09:24:29.114Z,8.25
2023-05-08T09:25:45.707Z,7.15
2023-05-08T09:26:48.636Z,6.20
2023-05-08T09:27:50.647Z,7.55
2023-05-08T09:29:09.836Z,7.53
2023-05-08T09:30:14.318Z,7.82
2023-05-08T09:31:17.301Z,7.43
2023-05-08T09:32:19.438Z,8.18
2023-05-08T09:33:23.750Z,8.48
2023-05-08T09:34:28.257Z,8.40
2023-05-08T09:35:37.676Z,7.65
2023-05-08T09:36:42.065Z,8.02
2023-05-08T09:37:47.364Z,7.65
2023-05-08T09:38:49.330Z,6.95
2023-05-08T09:39:52.431Z,7.97
2023-05-08T09:41:07.100Z,8.05
2023-05-08T09:42:10.266Z,8.98
2023-05-08T09:43:13.837Z,7.82
2023-05-08T09:44:16.957Z,8.57
2023-05-08T09:45:31.566Z,7.57
2023-05-08T09:46:34.533Z,8.05
2023-05-08T09:47:39.536Z,8.07
2023-05-08T09:48:41.567Z,8.57
2023-05-08T09:50:00.883Z,6.70
2023-05-08T09:51:06.779Z,9.35
2023-05-08T09:52:16.360Z,7.82
2023-05-08T09:53:19.685Z,8.32
2023-05-08T09:54:22.635Z,9.20
2023-05-08T09:55:25.574Z,9.15
2023-05-08T09:56:33.649Z,7.97
2023-05-08T09:57:39.749Z,8.60
2023-05-08T09:58:43.363Z,8.25
2023-05-08T09:59:46.393Z,8.13
2023-05-08T10:00:49.390Z,7.20
2023-05-08T10:01:51.495Z,9.63
2023-05-08T10:02:59.686Z,9.15
2023-05-08T10:04:02.903Z,7.40
2023-05-08T10:05:13.846Z,9.63
2023-05-08T10:06:16.496Z,8.10
2023-05-08T10:07:28.780Z,9.07
2023-05-08T10:08:32.281Z,7.68
2023-05-08T10:09:46.920Z,9.20
2023-05-08T10:10:53.488Z,5.50
2023-05-08T10:11:56.900Z,6.80
2023-05-08T10:12:59.084Z,8.23
2023-05-08T10:14:02.265Z,9.25
2023-05-08T10:15:05.121Z,6.05
2023-05-08T10:16:12.690Z,5.18
2023-05-08T10:17:21.447Z,7.80
2023-05-08T10:18:28.607Z,6.65
2023-05-08T10:19:31.704Z,5.78
2023-05-08T10:20:34.827Z,6.85
2023-05-08T10:21:38.981Z,7.78
2023-05-08T10:22:44.934Z,6.05
2023-05-08T10:23:51.312Z,5.60
2023-05-08T10:24:57.986Z,5.20
2023-05-08T10:26:07.902Z,6.40
2023-05-08T10:27:18.267Z,5.55
2023-05-08T10:28:29.356Z,4.80
2023-05-08T10:29:35.252Z,5.43
2023-05-08T10:30:42.093Z,5.35
2023-05-08T10:31:47.336Z,6.10
2023-05-08T10:32:51.972Z,6.90
2023-05-08T10:33:57.305Z,7.05
2023-05-08T10:35:01.104Z,6.15
2023-05-08T10:36:03.367Z,4.75
2023-05-08T10:37:10.209Z,6.78
2023-05-08T10:38:13.233Z,6.88
2023-05-08T10:39:18.652Z,5.50
2023-05-08T10:40:21.717Z,6.88
2023-05-08T10:41:24.875Z,5.22
2023-05-08T10:42:28.937Z,6.85
2023-05-08T10:43:32.111Z,7.57
2023-05-08T10:44:35.405Z,7.50
2023-05-08T10:45:38.335Z,6.97
2023-05-08T10:46:48.911Z,7.32
2023-05-08T10:48:00.587Z,7.07
2023-05-08T10:49:13.949Z,6.85
2023-05-08T10:50:29.034Z,6.35
2023-05-08T10:51:41.723Z,6.38
2023-05-08T10:52:52.816Z,7.43
2023-05-08T10:54:01.678Z,6.20
2023-05-08T10:55:21.042Z,6.63
2023-05-08T10:56:27.296Z,6.07
2023-05-08T10:57:29.262Z,6.53
2023-05-08T10:58:34.116Z,5.50
2023-05-08T10:59:36.738Z,5.80
2023-05-08T11:01:19.570Z,6.32
2023-05-08T11:02:28.936Z,5.80
2023-05-08T11:03:33.417Z,6.53
2023-05-08T11:04:36.578Z,5.70
2023-05-08T11:05:48.927Z,5.55
2023-05-08T11:06:53.043Z,4.55
2023-05-08T11:07:56.544Z,5.80
2023-05-08T11:09:00.782Z,6.53
2023-05-08T11:10:15.027Z,4.45
2023-05-08T11:11:33.515Z,6.72
2023-05-08T11:12:37.921Z,7.10
2023-05-08T11:13:47.991Z,5.32
2023-05-08T11:15:02.805Z,8.35
2023-05-08T11:16:06.550Z,6.82
2023-05-08T11:17:10.986Z,6.10
2023-05-08T11:18:18.258Z,6.30
2023-05-08T11:19:21.694Z,6.40
2023-05-08T11:20:38.767Z,5.70
2023-05-08T11:22:13.530Z,6.63
2023-05-08T11:23:23.341Z,6.55
2023-05-08T11:24:36.010Z,6.50
2023-05-08T11:25:46.607Z,6.68
2023-05-08T11:26:49.568Z,7.60
2023-05-08T11:28:11.372Z,7.28
2023-05-08T11:29:17.479Z,7.40
2023-05-08T11:30:35.991Z,8.13
2023-05-08T11:31:54.082Z,7.55
2023-05-08T11:33:13.138Z,8.50
2023-05-08T11:34:46.290Z,8.98
2023-05-08T11:35:57.625Z,8.45
2023-05-08T11:37:02.777Z,9.07
2023-05-08T11:38:19.572Z,9.75
2023-05-08T11:39:22.459Z,9.00
2023-05-08T11:40:48.839Z,8.48
2023-05-08T11:41:51.856Z,8.30
2023-05-08T11:42:56.548Z,9.65
2023-05-08T11:44:18.423Z,8.70
2023-05-08T11:45:21.421Z,8.10
2023-05-08T11:46:24.363Z,8.48
2023-05-08T11:47:36.847Z,8.80
2023-05-08T11:48:39.878Z,9.13
2023-05-08T11:49:42.981Z,9.43
2023-05-08T11:50:44.989Z,8.18
2023-05-08T11:51:49.765Z,9.13
2023-05-08T11:52:52.126Z,9.10
2023-05-08T11:53:55.064Z,9.23
2023-05-08T11:54:57.056Z,7.45
2023-05-08T11:56:01.846Z,8.32
2023-05-08T11:57:04.923Z,7.47
2023-05-08T11:58:12.462Z,10.25
2023-05-08T11:59:16.202Z,11.98
2023-05-08T12:00:18.779Z,8.02
2023-05-08T12:01:21.890Z,9.88
2023-05-08T12:02:36.940Z,10.20
2023-05-08T12:03:39.192Z,9.05
2023-05-08T12:04:46.677Z,9.15
2023-05-08T12:05:50.367Z,7.30
2023-05-08T12:06:59.092Z,5.30
2023-05-08T12:08:01.105Z,8.35
2023-05-08T12:09:05.403Z,8.63
2023-05-08T12:10:09.698Z,6.95
2023-05-08T12:11:23.215Z,8.55
2023-05-08T12:12:37.580Z,8.75
2023-05-08T12:13:39.559Z,8.40
2023-05-08T12:14:42.457Z,8.68
2023-05-08T12:15:45.156Z,8.63
2023-05-08T12:16:48.150Z,7.30
2023-05-08T12:18:01.698Z,6.55
2023-05-08T12:19:04.911Z,7.93
2023-05-08T12:20:11.973Z,8.60
2023-05-08T12:21:15.257Z,9.07
2023-05-08T12:22:17.200Z,8.50
2023-05-08T12:23:20.883Z,7.57
2023-05-08T12:24:23.758Z,7.45
2023-05-08T12:25:27.068Z,9.43
2023-05-08T12:26:35.706Z,8.10
2023-05-08T12:27:39.156Z,5.80
2023-05-08T12:28:44.019Z,5.28
2023-05-08T12:29:47.247Z,8.25
2023-05-08T12:30:49.800Z,8.63
2023-05-08T12:31:53.598Z,8.20
2023-05-08T12:32:56.246Z,8.73
2023-05-08T12:33:59.844Z,9.77
2023-05-08T12:35:01.922Z,8.68
2023-05-08T12:36:06.376Z,8.00
2023-05-08T12:37:08.357Z,8.07
2023-05-08T12:38:11.962Z,8.05
2023-05-08T12:39:16.741Z,7.65
2023-05-08T12:40:31.409Z,8.25
2023-05-08T12:41:35.750Z,9.27
2023-05-08T12:42:45.679Z,7.50
2023-05-08T12:43:49.818Z,8.20
2023-05-08T12:44:53.138Z,7.55
2023-05-08T12:45:56.143Z,8.52
2023-05-08T12:46:58.820Z,7.75
2023-05-08T12:48:03.562Z,7.78
2023-05-08T12:49:07.847Z,7.88
2023-05-08T12:50:12.285Z,8.77
2023-05-08T12:51:15.572Z,8.73
2023-05-08T12:52:18.441Z,8.85
2023-05-08T12:53:23.898Z,8.18
2023-05-08T12:54:32.762Z,6.85
2023-05-08T12:55:37.159Z,7.80
2023-05-08T12:56:44.334Z,9.80
2023-05-08T12:57:47.342Z,8.85
2023-05-08T12:58:50.325Z,9.85
2023-05-08T13:00:05.430Z,9.30
2023-05-08T13:01:13.085Z,8.88
2023-05-08T13:02:18.701Z,8.82
2023-05-08T13:03:27.292Z,8.50
2023-05-08T13:04:30.355Z,8.15
2023-05-08T13:05:33.585Z,6.03
2023-05-08T13:06:36.614Z,5.53
2023-05-08T13:07:38.586Z,7.78
2023-05-08T13:08:42.110Z,8.27
2023-05-08T13:09:58.895Z,5.90
2023-05-08T13:11:03.680Z,8.60
2023-05-08T13:12:07.394Z,7.15
2023-05-08T13:13:10.364Z,5.35
2023-05-08T13:14:13.307Z,6.57
2023-05-08T13:15:16.266Z,5.47
2023-05-08T13:16:18.197Z,5.80
2023-05-08T13:17:21.257Z,5.25
2023-05-08T13:18:26.613Z,5.15
2023-05-08T13:19:28.653Z,5.57
2023-05-08T13:20:31.591Z,6.32
2023-05-08T13:21:34.488Z,5.70
2023-05-08T13:22:36.454Z,5.03
2023-05-08T13:23:39.938Z,5.25
2023-05-08T13:24:41.936Z,5.15
2023-05-08T13:25:44.888Z,5.28
2023-05-08T13:26:47.060Z,4.97
2023-05-08T13:27:51.351Z,5.75
2023-05-08T13:28:56.454Z,3.90
2023-05-08T13:29:58.702Z,4.75
2023-05-08T13:31:01.718Z,4.13
2023-05-08T13:32:03.784Z,4.60
2023-05-08T13:33:07.246Z,4.18
2023-05-08T13:34:09.946Z,4.47
2023-05-08T13:35:12.940Z,4.15
2023-05-08T13:36:15.961Z,4.43
2023-05-08T13:38:44.403Z,4.25
2023-05-08T13:39:46.612Z,4.30
2023-05-08T13:40:49.493Z,5.18
2023-05-08T13:41:51.398Z,4.80
2023-05-08T13:42:55.767Z,4.30
2023-05-08T13:43:58.910Z,4.53
2023-05-08T13:45:01.606Z,4.40
2023-05-08T13:46:06.220Z,4.85
2023-05-08T13:47:10.144Z,4.25
2023-05-08T13:48:13.219Z,4.68
2023-05-08T13:49:15.342Z,5.25
2023-05-08T13:50:19.810Z,5.20
2023-05-08T13:51:21.771Z,4.57
2023-05-08T13:52:24.683Z,3.85
2023-05-08T13:53:27.626Z,4.78
2023-05-08T13:54:31.051Z,4.45
2023-05-08T13:55:34.139Z,4.47
2023-05-08T13:56:36.074Z,5.05
2023-05-08T13:57:39.501Z,4.43
2023-05-08T13:58:43.847Z,5.13
2023-05-08T13:59:47.098Z,4.43
2023-05-08T14:00:50.488Z,4.72
2023-05-08T14:01:52.467Z,4.60
2023-05-08T14:02:55.480Z,4.30
2023-05-08T14:03:57.638Z,4.57
2023-05-08T14:05:00.776Z,4.90
2023-05-08T14:06:03.772Z,5.03
2023-05-08T14:07:06.060Z,4.55
2023-05-08T14:08:09.016Z,4.85
2023-05-08T14:09:10.967Z,4.20
2023-05-08T14:10:13.947Z,4.50
2023-05-08T14:11:15.961Z,4.53
2023-05-08T14:12:18.872Z,4.18
2023-05-08T14:13:20.883Z,5.00
2023-05-08T14:14:25.158Z,4.13
2023-05-08T14:15:36.530Z,4.68
2023-05-08T14:16:39.567Z,4.13
2023-05-08T14:17:42.904Z,4.53
2023-05-08T14:18:44.915Z,4.05
2023-05-08T14:19:47.873Z,4.40
2023-05-08T14:20:56.975Z,4.75
2023-05-08T14:22:00.813Z,4.38
2023-05-08T14:23:04.476Z,4.45
2023-05-08T14:24:06.867Z,4.60
2023-05-08T14:25:11.091Z,4.35
2023-05-08T14:26:13.165Z,3.92
2023-05-08T14:27:16.087Z,4.05
2023-05-08T14:28:20.750Z,4.38
2023-05-08T14:29:24.526Z,3.88